Terminal Aerodrome Forecast
Issued by NWS Cleveland, OH

Home | Current Version | Previous Version | Graphics & Text | Print | Product List | Glossary On
Versions: 1 2 3 4 5 6 7 8 9 10 11 12 13 14 15 16 17 18
000
FTUS41 KCLE 160829 AAA
TAFCAK
TAF AMD
KCAK 160829Z 1608/1706 33007KT 6SM -RA BR OVC035
      TEMPO 1608/1610 1SM -RA BR OVC004
     FM161000 33011KT 5SM BR OVC007
     FM161500 33012KT P6SM OVC020
     FM162100 33011KT P6SM BKN035=

USA.gov is the U.S. government's official web portal to all federal, state and local government web resources and services.